Time;durP1;ratioP1;P1;durP2;ratioP2;P2;SDS_P1;SDS_P2;PMS_P1;PMS_P2;Temp;Humidity;BMP_temperature;BMP_pressure;BME280_temperature;BME280_humidity;BME280_pressure;Samples;Min_cycle;Max_cycle;Signal;HPM_P1;HPM_P2
2023/04/28 00:00:56;;;;;;;13.40;4.78;;;6.50;90.70;;;;;;6221148;22;20043;-78
2023/04/28 00:03:23;;;;;;;13.57;4.88;;;6.50;90.60;;;;;;6275797;22;20008;-78
2023/04/28 00:05:52;;;;;;;11.68;4.80;;;6.40;90.50;;;;;;6246779;22;20016;-78
2023/04/28 00:08:21;;;;;;;13.93;5.28;;;6.40;90.20;;;;;;6221964;22;20012;-78
2023/04/28 00:10:48;;;;;;;14.30;5.85;;;6.40;90.60;;;;;;6221815;22;20115;-78
2023/04/28 00:13:15;;;;;;;13.70;4.72;;;6.40;90.60;;;;;;6221592;22;20089;-78
2023/04/28 00:15:42;;;;;;;13.48;5.68;;;6.30;90.60;;;;;;6246536;22;20027;-78
2023/04/28 00:18:09;;;;;;;12.35;5.03;;;6.30;90.90;;;;;;6220299;22;20019;-78
2023/04/28 00:20:36;;;;;;;13.63;6.50;;;6.30;91.40;;;;;;6221642;22;20047;-78
2023/04/28 00:23:03;;;;;;;13.38;4.93;;;6.30;91.00;;;;;;6221240;22;20023;-78
2023/04/28 00:25:31;;;;;;;11.98;5.47;;;6.20;91.20;;;;;;6221767;22;20440;-78
2023/04/28 00:27:58;;;;;;;12.05;5.45;;;6.20;91.90;;;;;;6220461;22;20447;-78
2023/04/28 00:30:25;;;;;;;15.32;6.03;;;6.20;91.70;;;;;;6219608;22;20027;-78
2023/04/28 00:32:52;;;;;;;10.27;5.05;;;6.10;92.00;;;;;;6219789;22;20106;-79
2023/04/28 00:35:19;;;;;;;12.30;4.93;;;6.20;91.60;;;;;;6246230;22;20020;-78
2023/04/28 00:37:46;;;;;;;12.77;5.15;;;6.10;91.20;;;;;;6220360;22;20023;-78
2023/04/28 00:40:14;;;;;;;13.45;5.60;;;6.00;91.40;;;;;;6219944;22;20098;-79
2023/04/28 00:42:41;;;;;;;13.95;5.78;;;6.10;91.60;;;;;;6220490;22;20015;-78
2023/04/28 00:45:08;;;;;;;15.80;5.03;;;6.00;92.00;;;;;;6220605;22;20046;-78
2023/04/28 00:47:36;;;;;;;13.32;5.03;;;6.00;92.00;;;;;;6219815;22;20501;-78
2023/04/28 00:50:05;;;;;;;10.00;5.00;;;6.00;91.80;;;;;;6219252;22;20054;-78
2023/04/28 00:52:32;;;;;;;12.52;5.15;;;6.00;91.70;;;;;;6245770;22;20826;-78
2023/04/28 00:54:59;;;;;;;13.85;5.32;;;6.00;92.00;;;;;;6245994;22;20054;-78
2023/04/28 00:57:26;;;;;;;11.50;4.88;;;6.00;92.20;;;;;;6220777;22;20024;-78
2023/04/28 00:59:53;;;;;;;17.58;6.22;;;5.90;92.30;;;;;;6221400;22;20015;-78
2023/04/28 01:02:21;;;;;;;12.90;5.60;;;5.90;92.10;;;;;;6274722;22;20057;-78
2023/04/28 01:04:50;;;;;;;13.90;5.90;;;5.90;92.20;;;;;;6221547;22;20020;-79
2023/04/28 01:07:17;;;;;;;15.60;6.35;;;6.00;92.10;;;;;;6246203;22;20024;-79
2023/04/28 01:09:46;;;;;;;16.27;5.88;;;5.90;92.50;;;;;;6222024;22;20050;-78
2023/04/28 01:12:17;;;;;;;14.77;6.35;;;5.90;92.20;;;;;;6222410;22;20022;-78
2023/04/28 01:14:49;;;;;;;16.58;6.90;;;5.90;92.50;;;;;;6224045;22;20035;-78
2023/04/28 01:17:17;;;;;;;15.75;6.63;;;5.80;92.60;;;;;;6222589;22;20046;-78
2023/04/28 01:19:44;;;;;;;16.10;7.28;;;5.80;93.00;;;;;;6247581;22;20669;-79
2023/04/28 01:22:14;;;;;;;14.15;6.40;;;5.70;92.90;;;;;;6221317;22;20015;-78
2023/04/28 01:24:42;;;;;;;14.18;6.43;;;5.80;92.70;;;;;;6222877;22;20035;-78
2023/04/28 01:27:11;;;;;;;15.93;5.50;;;5.70;92.80;;;;;;6247185;22;20102;-79
2023/04/28 01:29:40;;;;;;;19.05;6.63;;;5.70;92.70;;;;;;6248075;22;20069;-78
2023/04/28 01:32:07;;;;;;;14.32;6.95;;;5.60;92.50;;;;;;6223029;22;20102;-78
2023/04/28 01:34:34;;;;;;;16.73;5.93;;;5.60;92.70;;;;;;6222902;22;20408;-78
2023/04/28 01:37:04;;;;;;;16.17;7.38;;;5.60;93.10;;;;;;6222238;22;20020;-79
2023/04/28 01:39:32;;;;;;;15.05;7.45;;;5.60;93.60;;;;;;6222620;22;20027;-78
2023/04/28 01:41:59;;;;;;;15.57;6.47;;;5.60;93.50;;;;;;6223074;22;20382;-78
2023/04/28 01:44:26;;;;;;;15.13;6.28;;;5.50;93.20;;;;;;6222772;22;20027;-79
2023/04/28 01:46:53;;;;;;;17.77;7.47;;;5.50;93.50;;;;;;6247425;22;20020;-78
2023/04/28 01:49:20;;;;;;;13.85;6.55;;;5.50;93.40;;;;;;6222443;22;20398;-78
2023/04/28 01:51:47;;;;;;;17.05;7.35;;;5.50;93.30;;;;;;6222469;22;20023;-78
2023/04/28 01:54:15;;;;;;;13.70;6.85;;;5.50;93.30;;;;;;6247209;22;20027;-78
2023/04/28 01:56:43;;;;;;;16.85;7.70;;;5.50;93.40;;;;;;6221538;22;20019;-78
2023/04/28 01:59:13;;;;;;;15.75;6.57;;;5.50;93.50;;;;;;6222562;22;20019;-78
2023/04/28 02:01:40;;;;;;;17.30;6.75;;;5.50;93.50;;;;;;6221498;22;20047;-79
2023/04/28 02:04:07;;;;;;;19.58;7.03;;;5.50;93.70;;;;;;6220907;22;20027;-79
2023/04/28 02:06:36;;;;;;;17.83;6.72;;;5.40;93.90;;;;;;6220126;22;20051;-79
2023/04/28 02:09:03;;;;;;;20.55;7.47;;;5.40;94.20;;;;;;6221878;22;20019;-79
2023/04/28 02:11:32;;;;;;;16.10;7.18;;;5.30;94.10;;;;;;6246593;22;20093;-78
2023/04/28 02:14:00;;;;;;;20.02;9.05;;;5.30;94.50;;;;;;6222051;22;20027;-78
2023/04/28 02:16:27;;;;;;;17.40;8.63;;;5.30;94.10;;;;;;6244618;22;20019;-78
2023/04/28 02:18:54;;;;;;;16.35;7.55;;;5.30;94.60;;;;;;6221519;22;20024;-78
2023/04/28 02:21:21;;;;;;;17.08;8.55;;;5.30;94.50;;;;;;6221975;22;20140;-79
2023/04/28 02:23:49;;;;;;;18.00;7.72;;;5.20;95.10;;;;;;6220947;22;20015;-79
2023/04/28 02:26:16;;;;;;;17.45;7.40;;;5.20;94.90;;;;;;6220716;22;20622;-78
2023/04/28 02:28:43;;;;;;;15.57;7.90;;;5.20;94.80;;;;;;6221040;22;20023;-78
2023/04/28 02:31:12;;;;;;;19.58;7.88;;;5.20;94.40;;;;;;6220062;22;20344;-78
2023/04/28 02:33:41;;;;;;;16.50;7.25;;;5.20;94.30;;;;;;6246565;22;20051;-78
2023/04/28 02:36:09;;;;;;;16.83;8.27;;;5.20;94.20;;;;;;6222151;22;20046;-78
2023/04/28 02:38:37;;;;;;;17.73;7.60;;;5.10;94.60;;;;;;6221446;22;20138;-78
2023/04/28 02:41:07;;;;;;;17.52;8.07;;;5.20;95.00;;;;;;6221779;22;20455;-78
2023/04/28 02:43:36;;;;;;;16.55;7.30;;;5.10;94.50;;;;;;6221180;22;20729;-78
2023/04/28 02:46:04;;;;;;;16.30;7.28;;;5.10;94.50;;;;;;6246652;22;20023;-78
2023/04/28 02:48:34;;;;;;;20.77;7.90;;;5.10;94.90;;;;;;6246171;22;20019;-78
2023/04/28 02:51:01;;;;;;;18.05;6.40;;;5.10;94.80;;;;;;6247838;22;20089;-79
2023/04/28 02:53:28;;;;;;;15.13;6.95;;;5.10;94.70;;;;;;6221257;22;20102;-79
2023/04/28 02:55:56;;;;;;;15.60;7.13;;;5.00;94.90;;;;;;6221346;22;20035;-79
2023/04/28 02:58:23;;;;;;;14.80;6.85;;;5.00;94.80;;;;;;6221417;22;20031;-78
2023/04/28 03:00:50;;;;;;;17.92;8.43;;;5.00;94.80;;;;;;6221107;22;20046;-79
2023/04/28 03:03:17;;;;;;;16.10;6.85;;;5.00;95.00;;;;;;6221005;22;20039;-78
2023/04/28 03:05:45;;;;;;;16.42;7.55;;;5.00;94.90;;;;;;6221350;22;20050;-79
2023/04/28 03:08:12;;;;;;;18.13;7.53;;;5.00;95.00;;;;;;6221988;22;20440;-79
2023/04/28 03:10:39;;;;;;;17.17;8.10;;;5.00;95.10;;;;;;6221323;22;20083;-79
2023/04/28 03:13:06;;;;;;;16.17;7.20;;;5.00;95.20;;;;;;6222313;22;20028;-78
2023/04/28 03:15:33;;;;;;;15.85;8.05;;;5.00;95.50;;;;;;6221098;22;20024;-79
2023/04/28 03:18:01;;;;;;;20.15;8.23;;;4.90;95.70;;;;;;6221213;22;20027;-78
2023/04/28 03:20:28;;;;;;;18.50;7.50;;;4.90;95.90;;;;;;6222079;22;20444;-78
2023/04/28 03:22:55;;;;;;;15.77;8.05;;;4.90;95.90;;;;;;6246273;22;20026;-80
2023/04/28 03:25:22;;;;;;;17.20;7.88;;;4.80;96.20;;;;;;6246378;22;20796;-79
2023/04/28 03:27:50;;;;;;;16.70;7.93;;;4.90;96.30;;;;;;6221636;22;20439;-79
2023/04/28 03:30:17;;;;;;;19.38;8.13;;;4.90;96.00;;;;;;6221654;22;20031;-79
2023/04/28 03:32:45;;;;;;;20.60;7.82;;;4.80;96.60;;;;;;6221203;22;20024;-79
2023/04/28 03:35:12;;;;;;;17.17;8.07;;;4.70;96.30;;;;;;6246710;22;20467;-79
2023/04/28 03:37:40;;;;;;;19.25;8.38;;;4.70;96.30;;;;;;6246726;22;20027;-79
2023/04/28 03:40:08;;;;;;;18.05;8.32;;;4.70;96.30;;;;;;6221446;22;20103;-79
2023/04/28 03:43:08;;;;;;;16.98;7.10;;;4.80;96.80;;;;;;6205184;22;20100;-79
2023/04/28 03:45:40;;;;;;;19.02;7.97;;;4.70;97.10;;;;;;6220973;22;20023;-78
2023/04/28 03:48:07;;;;;;;19.88;8.00;;;4.70;96.90;;;;;;6220985;22;20038;-78
2023/04/28 03:50:35;;;;;;;15.18;7.15;;;4.70;96.50;;;;;;6220067;22;20023;-79
2023/04/28 03:53:03;;;;;;;13.50;6.93;;;4.70;96.50;;;;;;6246172;22;20473;-79
2023/04/28 03:55:32;;;;;;;19.98;8.48;;;4.70;96.40;;;;;;6221001;22;20020;-79
2023/04/28 03:57:59;;;;;;;16.85;7.15;;;4.80;96.30;;;;;;6221042;22;20396;-79
2023/04/28 04:00:26;;;;;;;16.20;6.90;;;4.80;96.30;;;;;;6220168;22;20569;-79
2023/04/28 04:02:54;;;;;;;16.25;7.38;;;4.80;96.30;;;;;;6220846;22;20023;-79
2023/04/28 04:05:21;;;;;;;22.55;8.15;;;4.80;96.40;;;;;;6220228;22;20462;-78
2023/04/28 04:07:48;;;;;;;17.48;7.82;;;4.80;96.40;;;;;;6219278;22;20382;-79
2023/04/28 04:10:15;;;;;;;15.65;7.25;;;4.90;96.00;;;;;;6220620;22;20372;-79
2023/04/28 04:12:44;;;;;;;18.27;7.47;;;4.90;96.10;;;;;;6220986;22;20023;-78
2023/04/28 04:15:11;;;;;;;16.33;7.63;;;4.90;95.90;;;;;;6219495;22;20015;-79
2023/04/28 04:17:39;;;;;;;13.60;6.43;;;4.90;96.10;;;;;;6221168;22;20393;-78
2023/04/28 04:20:07;;;;;;;15.52;7.43;;;4.90;95.80;;;;;;6220128;22;20030;-79
2023/04/28 04:22:35;;;;;;;19.33;7.68;;;5.00;95.70;;;;;;6220744;22;20440;-78
2023/04/28 04:25:02;;;;;;;17.95;8.25;;;5.00;95.70;;;;;;6220548;22;20027;-78
2023/04/28 04:27:29;;;;;;;16.08;8.20;;;5.00;95.80;;;;;;6245317;22;20030;-78
2023/04/28 04:29:57;;;;;;;16.08;8.18;;;5.10;96.20;;;;;;6212866;22;20827;-78
2023/04/28 04:32:25;;;;;;;15.10;6.95;;;5.10;95.90;;;;;;6220424;22;20034;-79
2023/04/28 04:34:53;;;;;;;15.23;7.72;;;5.20;95.70;;;;;;6221248;22;20077;-78
2023/04/28 04:37:20;;;;;;;14.63;7.25;;;5.20;96.20;;;;;;6222360;22;20726;-79
2023/04/28 04:39:54;;;;;;;17.77;6.82;;;5.30;96.40;;;;;;6224203;22;20122;-78
2023/04/28 04:42:21;;;;;;;17.52;7.80;;;5.40;95.90;;;;;;6222318;22;20023;-78
2023/04/28 04:45:05;;;;;;;19.42;8.60;;;5.40;95.70;;;;;;6226285;22;20103;-78
2023/04/28 04:47:32;;;;;;;19.23;7.70;;;5.50;95.40;;;;;;6222835;22;20746;-78
2023/04/28 04:49:59;;;;;;;16.80;8.38;;;5.60;95.00;;;;;;6247660;22;20043;-79
2023/04/28 04:52:27;;;;;;;19.42;9.07;;;5.60;94.90;;;;;;6221332;22;20031;-79
2023/04/28 04:54:55;;;;;;;15.57;7.68;;;5.70;94.70;;;;;;6247269;22;20031;-78
2023/04/28 04:57:23;;;;;;;17.92;8.55;;;5.70;94.70;;;;;;6222934;22;20023;-78
2023/04/28 05:00:11;;;;;;;16.70;8.52;;;5.80;94.40;;;;;;6256020;22;20093;-79
2023/04/28 05:02:38;;;;;;;16.17;8.18;;;5.90;94.00;;;;;;6247442;22;20020;-78
2023/04/28 05:05:06;;;;;;;17.45;8.35;;;6.00;94.00;;;;;;6247144;22;20454;-79
2023/04/28 05:07:51;;;;;;;19.98;8.85;;;6.10;93.50;;;;;;6228319;22;20576;-79
2023/04/28 05:10:20;;;;;;;15.63;8.15;;;6.20;93.60;;;;;;6222360;22;20039;-80
2023/04/28 05:12:47;;;;;;;14.05;6.93;;;6.30;93.10;;;;;;6222061;22;20520;-79
2023/04/28 05:15:16;;;;;;;12.93;6.88;;;6.40;93.20;;;;;;6221494;22;20024;-79
2023/04/28 05:17:57;;;;;;;14.38;6.68;;;6.40;92.90;;;;;;6246870;22;20094;-79
2023/04/28 05:20:24;;;;;;;14.18;6.95;;;6.50;92.50;;;;;;6222698;22;20023;-79
2023/04/28 05:22:51;;;;;;;11.32;6.50;;;6.40;92.10;;;;;;6221989;22;20094;-79
2023/04/28 05:25:18;;;;;;;16.13;7.07;;;6.60;92.20;;;;;;6247043;22;20023;-78
2023/04/28 05:27:46;;;;;;;13.40;5.65;;;6.70;92.00;;;;;;6222489;22;20019;-77
2023/04/28 05:30:14;;;;;;;15.40;6.45;;;6.70;91.40;;;;;;6221956;22;20030;-79
2023/04/28 05:32:42;;;;;;;16.60;7.22;;;6.80;91.40;;;;;;6223241;22;20407;-79
2023/04/28 05:35:09;;;;;;;13.68;5.93;;;6.90;91.10;;;;;;6220779;22;20020;-79
2023/04/28 05:37:37;;;;;;;13.93;6.78;;;7.00;90.70;;;;;;6222221;22;20726;-79
2023/04/28 05:40:04;;;;;;;14.10;5.85;;;7.10;91.20;;;;;;6222551;22;20043;-79
2023/04/28 05:42:32;;;;;;;13.18;5.65;;;7.20;90.90;;;;;;6225527;22;20016;-79
2023/04/28 05:44:59;;;;;;;13.15;5.68;;;7.20;90.70;;;;;;6248386;22;20026;-80
2023/04/28 05:47:28;;;;;;;11.75;5.82;;;7.30;90.70;;;;;;6219098;22;20019;-80
2023/04/28 05:50:15;;;;;;;10.23;5.63;;;7.30;90.80;;;;;;6220599;23;20820;-79
2023/04/28 05:52:42;;;;;;;10.73;4.93;;;7.50;91.00;;;;;;6207155;23;20054;-79
2023/04/28 05:55:09;;;;;;;15.35;6.13;;;7.60;91.10;;;;;;6175854;23;20451;-78
2023/04/28 05:57:37;;;;;;;12.57;6.20;;;7.80;91.00;;;;;;6230746;22;20502;-79
2023/04/28 06:00:18;;;;;;;12.27;5.63;;;7.90;90.70;;;;;;6225279;23;20126;-79
2023/04/28 06:02:45;;;;;;;14.38;5.47;;;8.10;90.30;;;;;;6199028;23;20427;-79
2023/04/28 06:05:13;;;;;;;10.48;5.55;;;8.40;90.30;;;;;;6203330;23;20020;-78
2023/04/28 06:07:42;;;;;;;11.07;5.15;;;8.50;89.30;;;;;;6179483;23;20220;-80
2023/04/28 06:10:09;;;;;;;11.85;5.40;;;8.60;88.00;;;;;;6204770;23;20208;-79
2023/04/28 06:12:36;;;;;;;12.15;6.13;;;8.80;88.90;;;;;;6174585;23;20078;-79
2023/04/28 06:15:05;;;;;;;8.80;5.03;;;8.80;86.90;;;;;;6176781;23;20130;-79
2023/04/28 06:17:33;;;;;;;10.13;4.97;;;8.90;88.00;;;;;;6201177;23;20452;-79
2023/04/28 06:20:00;;;;;;;12.85;5.38;;;8.90;87.30;;;;;;6177023;23;20024;-79
2023/04/28 06:22:27;;;;;;;9.15;4.75;;;9.10;86.70;;;;;;6207885;22;20727;-79
2023/04/28 06:24:54;;;;;;;8.38;4.20;;;9.30;85.10;;;;;;6207022;22;20296;-79
2023/04/28 06:27:31;;;;;;;8.93;5.10;;;9.60;85.30;;;;;;6209548;22;20016;-79
2023/04/28 06:29:58;;;;;;;10.52;4.78;;;9.70;85.70;;;;;;6207487;22;20032;-79
2023/04/28 06:32:26;;;;;;;10.25;5.68;;;9.80;83.70;;;;;;6209617;22;20101;-79
2023/04/28 06:34:53;;;;;;;10.43;5.63;;;10.10;81.20;;;;;;6210343;22;20025;-79
2023/04/28 06:37:23;;;;;;;10.90;5.60;;;10.20;81.70;;;;;;6210388;22;20059;-80
2023/04/28 06:39:50;;;;;;;18.23;5.55;;;10.20;82.30;;;;;;6213480;22;20019;-79
2023/04/28 06:42:19;;;;;;;12.73;5.45;;;10.40;82.80;;;;;;6210095;22;20405;-80
2023/04/28 06:44:54;;;;;;;8.82;5.40;;;10.40;80.40;;;;;;6216094;22;20023;-79
2023/04/28 06:47:22;;;;;;;8.60;4.25;;;10.40;79.20;;;;;;6234300;22;20023;-79
2023/04/28 06:49:49;;;;;;;12.77;5.28;;;10.60;80.60;;;;;;6208706;22;20040;-79
2023/04/28 06:52:16;;;;;;;10.73;5.20;;;10.70;81.20;;;;;;6209435;22;20055;-80
2023/04/28 06:54:44;;;;;;;7.75;4.47;;;10.70;79.50;;;;;;6209520;22;20463;-80
2023/04/28 06:57:11;;;;;;;13.30;5.97;;;10.70;79.40;;;;;;6208583;22;20027;-80
2023/04/28 06:59:39;;;;;;;11.73;5.53;;;10.80;78.60;;;;;;6203680;22;20032;-80
2023/04/28 07:02:07;;;;;;;12.73;5.10;;;11.10;77.80;;;;;;6232542;22;20026;-80
2023/04/28 07:04:35;;;;;;;10.57;5.22;;;11.20;78.10;;;;;;6206410;22;20447;-79
2023/04/28 07:07:07;;;;;;;10.00;4.55;;;11.30;79.00;;;;;;6208881;22;20042;-80
2023/04/28 07:09:34;;;;;;;10.73;4.60;;;11.00;76.90;;;;;;6230834;22;20104;-79
2023/04/28 07:12:03;;;;;;;7.00;4.20;;;11.20;75.80;;;;;;6209447;22;20067;-79
2023/04/28 07:14:30;;;;;;;8.13;4.38;;;11.40;76.70;;;;;;6232743;22;20489;-79
2023/04/28 07:16:57;;;;;;;7.30;3.72;;;11.40;75.50;;;;;;6207202;22;20472;-79
2023/04/28 07:19:25;;;;;;;9.73;5.00;;;11.50;73.80;;;;;;6207583;22;20500;-79
2023/04/28 07:21:52;;;;;;;9.02;4.75;;;11.90;76.10;;;;;;6209424;22;20019;-79
2023/04/28 07:24:19;;;;;;;10.52;4.68;;;12.20;75.00;;;;;;6207018;22;20542;-80
2023/04/28 07:26:47;;;;;;;7.82;5.05;;;13.10;73.70;;;;;;6229911;22;20438;-80
2023/04/28 07:29:17;;;;;;;15.43;6.35;;;12.20;73.20;;;;;;6205975;22;20460;-78
2023/04/28 07:31:44;;;;;;;7.40;4.50;;;12.40;72.80;;;;;;6206069;22;20027;-78
2023/04/28 07:34:11;;;;;;;9.15;4.30;;;12.50;74.00;;;;;;6232580;22;20055;-79
2023/04/28 07:36:39;;;;;;;8.45;4.43;;;11.80;70.40;;;;;;6233894;22;20024;-79
2023/04/28 07:39:07;;;;;;;7.68;4.68;;;12.70;71.60;;;;;;6207001;22;20519;-80
2023/04/28 07:41:37;;;;;;;11.65;4.25;;;12.70;70.20;;;;;;6231903;22;20019;-78
2023/04/28 07:44:07;;;;;;;8.93;4.40;;;12.80;70.90;;;;;;6231670;22;20050;-78
2023/04/28 07:46:34;;;;;;;11.02;4.60;;;13.00;73.00;;;;;;6206737;22;20106;-79
2023/04/28 07:49:03;;;;;;;9.65;5.43;;;13.00;71.20;;;;;;6208014;22;20106;-79
2023/04/28 07:51:31;;;;;;;9.88;4.85;;;13.20;72.50;;;;;;6208412;22;20051;-80
2023/04/28 07:53:58;;;;;;;13.30;5.05;;;13.10;69.90;;;;;;6207387;22;20081;-79
2023/04/28 07:56:25;;;;;;;10.57;3.70;;;13.30;70.50;;;;;;6232215;22;20510;-80
2023/04/28 07:58:52;;;;;;;7.40;3.67;;;13.50;70.90;;;;;;6205637;22;20132;-80
2023/04/28 08:01:20;;;;;;;10.05;3.22;;;13.80;67.20;;;;;;6206912;22;20024;-78
2023/04/28 08:03:48;;;;;;;6.78;2.97;;;13.80;67.10;;;;;;6206900;22;20733;-79
2023/04/28 08:06:18;;;;;;;9.98;3.30;;;14.10;66.40;;;;;;6207261;22;20430;-79
2023/04/28 08:08:46;;;;;;;7.10;3.17;;;13.80;66.60;;;;;;6230854;22;20020;-78
2023/04/28 08:11:13;;;;;;;5.03;2.63;;;13.90;66.00;;;;;;6233231;22;20024;-79
2023/04/28 08:13:40;;;;;;;7.10;3.05;;;13.90;64.70;;;;;;6207187;22;20023;-77
2023/04/28 08:16:07;;;;;;;7.50;2.95;;;14.20;67.00;;;;;;6208471;22;20031;-77
2023/04/28 08:18:37;;;;;;;6.07;3.45;;;14.30;64.90;;;;;;6206943;22;20016;-78
2023/04/28 08:21:05;;;;;;;5.43;2.47;;;14.40;66.10;;;;;;6207639;22;20413;-79
2023/04/28 08:23:32;;;;;;;8.32;3.40;;;14.70;66.80;;;;;;6207818;22;20022;-79
2023/04/28 08:26:00;;;;;;;7.88;3.55;;;14.90;67.40;;;;;;6206715;22;20016;-78
2023/04/28 08:28:27;;;;;;;4.97;2.47;;;15.40;65.30;;;;;;6233434;22;20131;-79
2023/04/28 08:30:57;;;;;;;4.53;2.50;;;14.70;62.50;;;;;;6208961;22;20068;-78
2023/04/28 08:33:25;;;;;;;8.52;3.10;;;14.90;63.80;;;;;;6209018;22;20050;-79
2023/04/28 08:35:54;;;;;;;4.85;2.17;;;15.00;63.20;;;;;;6234165;22;20495;-77
2023/04/28 08:38:22;;;;;;;7.15;2.92;;;15.10;62.40;;;;;;6238298;22;20027;-77
2023/04/28 08:40:50;;;;;;;3.90;1.65;;;15.10;60.70;;;;;;6206982;22;20036;-79
2023/04/28 08:43:20;;;;;;;3.72;2.00;;;15.20;60.70;;;;;;6208056;22;20448;-76
2023/04/28 08:45:48;;;;;;;6.72;2.78;;;15.40;58.70;;;;;;6209192;22;20024;-77
2023/04/28 08:48:19;;;;;;;4.00;1.50;;;15.10;57.20;;;;;;6209015;22;20475;-78
2023/04/28 08:50:50;;;;;;;6.65;1.65;;;15.20;56.40;;;;;;6208060;22;20024;-77
2023/04/28 08:53:24;;;;;;;6.65;1.23;;;15.60;58.40;;;;;;6209979;22;20023;-78
2023/04/28 08:55:57;;;;;;;3.33;0.90;;;15.60;57.50;;;;;;6207727;22;20039;-77
2023/04/28 08:58:26;;;;;;;3.67;1.08;;;15.60;54.80;;;;;;6206725;22;20043;-79
2023/04/28 09:00:53;;;;;;;6.13;2.30;;;15.70;55.80;;;;;;6208416;22;20208;-79
2023/04/28 09:03:20;;;;;;;2.92;1.20;;;15.70;55.50;;;;;;6206802;22;20023;-79
2023/04/28 09:05:48;;;;;;;3.28;1.30;;;15.90;55.20;;;;;;6231015;22;20050;-78
2023/04/28 09:08:15;;;;;;;2.50;1.02;;;15.90;54.30;;;;;;6257611;22;20026;-79
2023/04/28 09:10:42;;;;;;;3.78;1.48;;;16.00;55.80;;;;;;6206917;22;20043;-78
2023/04/28 09:13:23;;;;;;;5.68;1.85;;;15.90;54.50;;;;;;6208327;22;20058;-79
2023/04/28 09:15:50;;;;;;;5.32;2.17;;;15.70;51.40;;;;;;6207780;22;20058;-80
2023/04/28 09:18:18;;;;;;;3.40;1.10;;;15.80;54.20;;;;;;6208697;22;20102;-79
2023/04/28 09:20:46;;;;;;;7.30;1.98;;;15.70;54.30;;;;;;6231928;22;20024;-78
2023/04/28 09:23:14;;;;;;;3.45;1.40;;;15.70;54.90;;;;;;6205854;22;20023;-79
2023/04/28 09:25:58;;;;;;;4.85;1.60;;;15.70;55.80;;;;;;6206704;22;20027;-77
2023/04/28 09:28:27;;;;;;;4.70;1.60;;;15.70;55.50;;;;;;6235207;22;20030;-79
2023/04/28 09:30:54;;;;;;;7.32;1.65;;;15.70;55.50;;;;;;6233569;22;20023;-79
2023/04/28 09:33:22;;;;;;;4.57;1.70;;;15.80;55.10;;;;;;6205575;22;20110;-79
2023/04/28 09:35:50;;;;;;;7.63;2.63;;;15.90;55.70;;;;;;6209867;22;20027;-77
2023/04/28 09:38:19;;;;;;;4.30;1.48;;;15.90;55.80;;;;;;6208800;22;20518;-77
2023/04/28 09:41:00;;;;;;;4.93;1.42;;;16.10;54.20;;;;;;6209202;22;20086;-78
2023/04/28 09:43:32;;;;;;;3.90;1.45;;;16.30;55.10;;;;;;6232800;22;20023;-79
2023/04/28 09:46:01;;;;;;;2.95;1.52;;;16.30;55.50;;;;;;6209938;22;20561;-79
2023/04/28 09:48:33;;;;;;;5.57;1.40;;;16.40;54.60;;;;;;6234195;22;20100;-78
2023/04/28 09:51:06;;;;;;;3.30;1.55;;;16.50;55.70;;;;;;6233150;22;20023;-77
2023/04/28 09:53:34;;;;;;;8.93;1.90;;;16.80;56.60;;;;;;6259997;22;20043;-79
2023/04/28 09:56:04;;;;;;;4.93;1.65;;;16.80;55.10;;;;;;6207533;22;20024;-78
2023/04/28 09:58:38;;;;;;;3.25;1.45;;;16.80;54.60;;;;;;6208621;22;20038;-79
2023/04/28 10:01:10;;;;;;;3.28;1.30;;;16.80;54.60;;;;;;6230790;22;20019;-79
2023/04/28 10:03:39;;;;;;;5.90;1.43;;;16.60;53.40;;;;;;6234851;22;20027;-78
2023/04/28 10:06:07;;;;;;;4.53;1.48;;;16.70;53.80;;;;;;6206074;22;20263;-77
2023/04/28 10:08:34;;;;;;;4.03;1.38;;;16.90;53.50;;;;;;6233679;22;20023;-80
2023/04/28 10:11:05;;;;;;;5.50;1.55;;;16.70;53.40;;;;;;6209489;22;20016;-79
2023/04/28 10:13:35;;;;;;;2.47;1.08;;;16.90;53.00;;;;;;6210277;22;20031;-78
2023/04/28 10:16:03;;;;;;;7.15;1.73;;;16.80;51.80;;;;;;6206300;22;20459;-78
2023/04/28 10:18:33;;;;;;;4.70;1.35;;;16.90;52.10;;;;;;6233564;22;20077;-78
2023/04/28 10:21:05;;;;;;;3.70;1.00;;;16.90;52.60;;;;;;6207836;22;20019;-78
2023/04/28 10:23:59;;;;;;;5.68;1.85;;;17.10;54.00;;;;;;6208635;22;20019;-79
2023/04/28 10:27:08;;;;;;;4.75;1.85;;;17.00;52.30;;;;;;6233508;22;20024;-78
2023/04/28 10:29:36;;;;;;;4.60;1.27;;;16.80;52.00;;;;;;6235881;22;20494;-79
2023/04/28 10:32:21;;;;;;;4.07;1.10;;;16.80;53.50;;;;;;6231979;22;20019;-78
2023/04/28 10:34:49;;;;;;;4.55;1.70;;;17.00;53.00;;;;;;6209402;22;20030;-78
2023/04/28 10:37:18;;;;;;;3.80;1.20;;;16.70;50.60;;;;;;6206521;22;20026;-78
2023/04/28 10:40:23;;;;;;;3.50;1.00;;;16.60;50.60;;;;;;6207141;22;20051;-78
2023/04/28 10:42:53;;;;;;;3.30;1.10;;;16.70;51.80;;;;;;6231514;22;20124;-78
2023/04/28 10:45:55;;;;;;;3.63;0.80;;;16.50;52.10;;;;;;6207468;22;20020;-78
2023/04/28 10:48:33;;;;;;;3.00;0.93;;;16.90;52.60;;;;;;6231592;22;20449;-78
2023/04/28 10:51:04;;;;;;;3.05;1.35;;;17.30;53.70;;;;;;6208052;22;20043;-79
2023/04/28 10:53:45;;;;;;;5.93;1.80;;;17.10;51.20;;;;;;6207784;22;20465;-76
2023/04/28 10:56:25;;;;;;;2.40;1.40;;;17.20;54.00;;;;;;6206432;22;20457;-78
2023/04/28 10:58:56;;;;;;;3.00;1.30;;;17.40;53.70;;;;;;6206826;22;20442;-77
2023/04/28 11:01:24;;;;;;;3.13;1.20;;;17.40;53.10;;;;;;6206868;22;20031;-78
2023/04/28 11:04:10;;;;;;;4.93;1.65;;;17.50;54.40;;;;;;6206521;22;20048;-79
2023/04/28 11:06:42;;;;;;;4.38;1.20;;;17.60;53.10;;;;;;6228982;22;20019;-79
2023/04/28 11:09:16;;;;;;;2.08;0.95;;;17.60;53.40;;;;;;6230483;22;20662;-78
2023/04/28 11:12:06;;;;;;;3.92;1.15;;;17.90;53.60;;;;;;6207011;22;20026;-79
2023/04/28 11:14:35;;;;;;;5.20;1.25;;;17.90;52.80;;;;;;6231899;22;20110;-79
2023/04/28 11:17:04;;;;;;;7.15;1.33;;;17.70;52.20;;;;;;6205455;22;20443;-79
2023/04/28 11:19:35;;;;;;;3.03;0.80;;;17.60;52.80;;;;;;6208625;22;20485;-80
2023/04/28 11:22:14;;;;;;;3.40;1.15;;;18.00;53.10;;;;;;6213368;22;20035;-79
2023/04/28 11:24:54;;;;;;;4.00;1.38;;;18.00;52.40;;;;;;6231946;22;20071;-79
2023/04/28 11:27:30;;;;;;;8.65;1.98;;;17.70;51.30;;;;;;6259023;22;20026;-78
2023/04/28 11:29:58;;;;;;;4.30;1.27;;;17.70;52.60;;;;;;6231472;22;20534;-77
2023/04/28 11:32:31;;;;;;;3.58;1.20;;;17.60;52.50;;;;;;6206527;22;20588;-79
2023/04/28 11:34:59;;;;;;;2.33;1.23;;;17.40;53.20;;;;;;6231481;22;20027;-78
2023/04/28 11:37:26;;;;;;;3.97;0.95;;;17.50;54.30;;;;;;6260662;22;20393;-79
2023/04/28 11:39:56;;;;;;;6.13;1.92;;;17.50;53.10;;;;;;6208833;22;20050;-78
2023/04/28 11:42:26;;;;;;;2.42;1.25;;;17.40;53.60;;;;;;6208792;22;20481;-79
2023/04/28 11:44:54;;;;;;;3.50;1.20;;;17.30;53.70;;;;;;6206220;22;20091;-79
2023/04/28 11:47:33;;;;;;;6.45;1.60;;;17.20;53.40;;;;;;6208562;22;20024;-79
2023/04/28 11:50:01;;;;;;;5.85;1.50;;;17.30;53.50;;;;;;6231615;22;20108;-78
2023/04/28 11:52:29;;;;;;;4.55;1.23;;;17.40;55.10;;;;;;6207987;22;20403;-79
2023/04/28 11:54:59;;;;;;;3.05;1.10;;;17.30;54.00;;;;;;6232335;22;20027;-79
2023/04/28 11:57:27;;;;;;;4.50;1.50;;;17.10;53.30;;;;;;6166785;23;20532;-80
2023/04/28 12:00:13;;;;;;;4.43;0.98;;;17.10;55.40;;;;;;6141406;23;20062;-79
2023/04/28 12:02:40;;;;;;;2.97;0.98;;;17.10;55.10;;;;;;6161166;23;20555;-77
2023/04/28 12:05:09;;;;;;;1.75;1.00;;;17.20;54.60;;;;;;6138733;23;20451;-79
2023/04/28 12:07:44;;;;;;;3.33;0.93;;;17.30;54.80;;;;;;6164783;23;20047;-79
2023/04/28 12:10:14;;;;;;;4.82;1.33;;;17.50;55.00;;;;;;6163099;23;20029;-78
2023/04/28 12:12:42;;;;;;;5.05;1.45;;;17.60;55.80;;;;;;6165606;23;20385;-78
2023/04/28 12:15:19;;;;;;;4.05;1.10;;;17.60;54.20;;;;;;6163373;23;20033;-78
2023/04/28 12:17:49;;;;;;;3.45;1.15;;;17.40;54.50;;;;;;6164779;23;20029;-77
2023/04/28 12:20:36;;;;;;;68.70;34.85;;;17.40;56.10;;;;;;6164590;23;20402;-78
2023/04/28 12:23:04;;;;;;;4.70;1.50;;;17.20;55.40;;;;;;6139288;23;20591;-79
2023/04/28 12:25:33;;;;;;;5.47;1.60;;;17.00;56.20;;;;;;6139251;23;20220;-81
2023/04/28 12:28:06;;;;;;;3.28;1.42;;;16.80;55.40;;;;;;6182943;22;20400;-78
2023/04/28 12:30:42;;;;;;;4.63;1.25;;;17.20;56.40;;;;;;6206436;22;20019;-78
2023/04/28 12:33:25;;;;;;;3.83;1.48;;;16.80;58.50;;;;;;6205074;22;20342;-78
2023/04/28 12:35:53;;;;;;;5.72;1.48;;;17.00;57.30;;;;;;6206538;22;20118;-79
2023/04/28 12:38:22;;;;;;;4.22;1.70;;;16.80;57.70;;;;;;6205726;22;20036;-77
2023/04/28 12:40:50;;;;;;;7.63;2.55;;;16.80;58.30;;;;;;6206323;22;20144;-77
2023/04/28 12:43:18;;;;;;;11.88;6.20;;;17.20;57.70;;;;;;6231150;22;20024;-78
2023/04/28 12:45:45;;;;;;;56.38;25.42;;;17.30;57.60;;;;;;6208366;22;20020;-78
2023/04/28 12:48:12;;;;;;;17.15;8.63;;;17.40;55.70;;;;;;6259262;22;20117;-78
2023/04/28 12:50:39;;;;;;;4.07;1.45;;;17.40;57.80;;;;;;6206063;22;20020;-79
2023/04/28 12:53:09;;;;;;;40.80;19.20;;;17.60;56.50;;;;;;6230567;22;20024;-79
2023/04/28 12:55:39;;;;;;;89.43;58.88;;;17.70;56.10;;;;;;6205613;22;20024;-81
2023/04/28 12:58:07;;;;;;;5.35;2.78;;;18.20;56.80;;;;;;6232476;22;20023;-79